createdAt,value
2019-04-03T00:00:40.942Z,2.13
2019-04-03T00:03:11.184Z,2.07
2019-04-03T00:05:41.318Z,2.20
2019-04-03T00:08:12.772Z,2.00
2019-04-03T00:10:43.142Z,2.10
2019-04-03T00:13:13.735Z,1.73
2019-04-03T00:15:44.774Z,2.10
2019-04-03T00:18:16.559Z,2.05
2019-04-03T00:20:49.171Z,1.57
2019-04-03T00:23:20.606Z,1.90
2019-04-03T00:25:52.836Z,2.00
2019-04-03T00:28:23.167Z,1.77
2019-04-03T00:30:53.406Z,2.13
2019-04-03T00:33:23.938Z,1.83
2019-04-03T00:35:54.492Z,1.70
2019-04-03T00:38:25.741Z,1.80
2019-04-03T00:40:57.049Z,1.80
2019-04-03T00:43:27.261Z,1.70
2019-04-03T00:45:57.511Z,2.07
2019-04-03T00:48:27.645Z,2.10
2019-04-03T00:50:58.048Z,1.80
2019-04-03T00:53:28.359Z,1.70
2019-04-03T00:55:58.765Z,1.40
2019-04-03T00:58:39.897Z,1.90
2019-04-03T01:01:11.860Z,1.67
2019-04-03T01:03:42.203Z,1.70
2019-04-03T01:06:12.613Z,1.90
2019-04-03T01:08:42.932Z,2.07
2019-04-03T01:11:13.396Z,1.77
2019-04-03T01:13:43.875Z,2.00
2019-04-03T01:16:14.187Z,2.43
2019-04-03T01:18:45.454Z,2.33
2019-04-03T01:21:15.865Z,1.73
2019-04-03T01:23:46.120Z,1.80
2019-04-03T01:26:16.257Z,1.83
2019-04-03T01:28:46.367Z,1.70
2019-04-03T01:31:16.632Z,2.03
2019-04-03T01:33:47.185Z,2.33
2019-04-03T01:36:18.219Z,1.90
2019-04-03T01:38:49.806Z,2.17
2019-04-03T01:41:21.676Z,1.90
2019-04-03T01:43:53.989Z,1.77
2019-04-03T01:46:24.336Z,2.40
2019-04-03T01:48:58.024Z,1.70
2019-04-03T01:51:29.691Z,2.23
2019-04-03T01:54:02.311Z,1.90
2019-04-03T01:56:32.017Z,1.87
2019-04-03T01:59:02.627Z,1.60
2019-04-03T02:01:33.318Z,2.07
2019-04-03T02:04:04.480Z,2.10
2019-04-03T02:06:34.847Z,2.17
2019-04-03T02:09:08.047Z,1.73
2019-04-03T02:11:38.799Z,2.50
2019-04-03T02:14:09.240Z,2.23
2019-04-03T02:16:39.562Z,2.23
2019-04-03T02:19:09.871Z,2.67
2019-04-03T02:21:40.022Z,2.30
2019-04-03T02:24:10.325Z,2.40
2019-04-03T02:26:41.687Z,2.10
2019-04-03T02:29:11.898Z,2.47
2019-04-03T02:31:42.266Z,2.33
2019-04-03T02:34:13.776Z,2.00
2019-04-03T02:36:45.415Z,2.47
2019-04-03T02:39:18.355Z,1.97
2019-04-03T02:41:48.450Z,2.30
2019-04-03T02:44:20.062Z,2.70
2019-04-03T02:46:50.502Z,2.80
2019-04-03T02:49:20.928Z,2.37
2019-04-03T02:51:53.024Z,2.97
2019-04-03T02:54:28.826Z,3.07
2019-04-03T02:56:59.525Z,2.63
2019-04-03T02:59:29.799Z,2.57
2019-04-03T03:02:00.413Z,3.10
2019-04-03T03:04:30.767Z,3.07
2019-04-03T03:07:03.892Z,3.00
2019-04-03T03:09:33.532Z,2.60
2019-04-03T03:12:04.067Z,3.10
2019-04-03T03:14:38.230Z,3.30
2019-04-03T03:17:07.156Z,3.67
2019-04-03T03:19:38.083Z,3.80
2019-04-03T03:22:09.222Z,3.00
2019-04-03T03:24:41.283Z,3.83
2019-04-03T03:27:12.269Z,2.80
2019-04-03T03:29:43.954Z,3.33
2019-04-03T03:32:19.902Z,3.17
2019-04-03T03:34:54.706Z,2.40
2019-04-03T03:37:18.999Z,2.67
2019-04-03T03:39:49.539Z,3.23
2019-04-03T03:42:20.231Z,3.60
2019-04-03T03:44:50.545Z,3.60
2019-04-03T03:47:20.911Z,3.17
2019-04-03T03:49:51.192Z,3.40
2019-04-03T03:52:22.195Z,2.90
2019-04-03T03:54:52.693Z,2.83
2019-04-03T03:57:23.308Z,3.27
2019-04-03T03:59:53.695Z,3.37
2019-04-03T04:02:24.027Z,3.53
2019-04-03T04:04:54.563Z,3.63
2019-04-03T04:07:25.139Z,4.10
2019-04-03T04:09:55.492Z,4.37
2019-04-03T04:12:25.894Z,4.30
2019-04-03T04:14:57.216Z,4.20
2019-04-03T04:17:29.168Z,3.70
2019-04-03T04:20:03.068Z,3.50
2019-04-03T04:22:32.173Z,3.83
2019-04-03T04:25:05.346Z,3.70
2019-04-03T04:27:37.549Z,3.70
2019-04-03T04:30:07.815Z,3.20
2019-04-03T04:32:38.001Z,3.53
2019-04-03T04:35:10.732Z,3.30
2019-04-03T04:37:40.810Z,3.60
2019-04-03T04:40:11.595Z,4.00
2019-04-03T04:42:41.716Z,3.33
2019-04-03T04:45:12.481Z,3.93
2019-04-03T04:47:45.534Z,3.33
2019-04-03T04:50:24.261Z,3.80
2019-04-03T04:52:54.196Z,4.30
2019-04-03T04:55:24.560Z,4.63
2019-04-03T04:57:54.768Z,3.60
2019-04-03T05:00:25.097Z,3.90
2019-04-03T05:02:55.573Z,4.33
2019-04-03T05:05:27.414Z,4.90
2019-04-03T05:07:59.694Z,7.40
2019-04-03T05:18:30.835Z,4.20
2019-04-03T05:21:01.542Z,4.67
2019-04-03T05:23:31.959Z,4.23
2019-04-03T05:26:02.364Z,4.20
2019-04-03T05:28:34.189Z,4.00
2019-04-03T05:31:06.067Z,4.23
2019-04-03T05:33:37.298Z,13.47
2019-04-03T05:36:08.653Z,5.30
2019-04-03T05:38:38.976Z,4.43
2019-04-03T05:41:09.190Z,4.87
2019-04-03T05:43:39.352Z,4.20
2019-04-03T05:46:09.768Z,5.70
2019-04-03T05:48:40.073Z,4.47
2019-04-03T05:51:10.496Z,3.60
2019-04-03T05:53:41.031Z,4.93
2019-04-03T05:56:12.405Z,4.20
2019-04-03T05:58:54.466Z,5.73
2019-04-03T06:01:16.282Z,6.87
2019-04-03T06:03:46.503Z,5.37
2019-04-03T06:06:16.812Z,6.57
2019-04-03T06:08:50.885Z,4.08
2019-04-03T06:11:20.852Z,4.60
2019-04-03T06:13:51.813Z,4.40
2019-04-03T06:16:24.564Z,6.30
2019-04-03T06:18:56.997Z,7.37
2019-04-03T06:21:27.714Z,6.73
2019-04-03T06:23:58.280Z,7.20
2019-04-03T06:26:29.022Z,6.97
2019-04-03T06:28:59.219Z,5.00
2019-04-03T06:31:29.618Z,5.10
2019-04-03T06:34:00.265Z,5.20
2019-04-03T06:36:31.076Z,4.43
2019-04-03T06:39:01.761Z,4.90
2019-04-03T06:41:32.368Z,4.40
2019-04-03T06:44:04.061Z,4.67
2019-04-03T06:46:34.780Z,4.57
2019-04-03T06:49:08.250Z,4.57
2019-04-03T06:51:37.645Z,4.80
2019-04-03T06:54:08.375Z,4.40
2019-04-03T06:56:40.523Z,5.22
2019-04-03T06:59:11.532Z,5.10
2019-04-03T07:01:41.892Z,5.20
2019-04-03T07:04:12.405Z,5.80
2019-04-03T07:06:44.738Z,5.40
2019-04-03T07:09:22.367Z,4.87
2019-04-03T07:11:47.108Z,10.17
2019-04-03T07:14:17.592Z,5.80
2019-04-03T07:16:47.767Z,5.40
2019-04-03T07:19:17.983Z,5.17
2019-04-03T07:21:48.328Z,4.13
2019-04-03T07:24:18.731Z,4.55
2019-04-03T07:26:49.407Z,5.20
2019-04-03T07:29:19.710Z,4.80
2019-04-03T07:31:51.026Z,4.47
2019-04-03T07:34:21.216Z,4.53
2019-04-03T07:36:51.386Z,4.27
2019-04-03T07:39:21.714Z,4.00
2019-04-03T07:41:54.411Z,4.77
2019-04-03T07:44:24.697Z,5.10
2019-04-03T07:46:55.689Z,5.13
2019-04-03T07:49:25.942Z,10.27
2019-04-03T07:51:56.582Z,4.93
2019-04-03T07:54:27.266Z,4.50
2019-04-03T07:56:58.187Z,4.50
2019-04-03T07:59:29.574Z,4.20
2019-04-03T08:02:00.014Z,3.97
2019-04-03T08:04:30.362Z,4.30
2019-04-03T08:07:00.541Z,4.10
2019-04-03T08:09:30.670Z,4.50
2019-04-03T08:12:03.437Z,4.57
2019-04-03T08:14:32.995Z,4.15
2019-04-03T08:17:03.397Z,3.80
2019-04-03T08:19:37.035Z,2.77
2019-04-03T08:22:07.393Z,3.40
2019-04-03T08:24:37.932Z,2.20
2019-04-03T08:27:09.655Z,2.50
2019-04-03T08:29:39.879Z,2.60
2019-04-03T08:32:10.611Z,1.93
2019-04-03T08:34:42.371Z,2.53
2019-04-03T08:37:12.569Z,3.13
2019-04-03T08:39:43.413Z,2.50
2019-04-03T08:42:14.137Z,2.23
2019-04-03T08:44:44.853Z,2.43
2019-04-03T08:47:15.387Z,1.93
2019-04-03T08:49:45.658Z,2.37
2019-04-03T08:52:16.451Z,2.05
2019-04-03T08:54:46.988Z,1.95
2019-04-03T08:57:20.522Z,2.37
2019-04-03T08:59:50.092Z,2.00
2019-04-03T09:02:20.588Z,1.98
2019-04-03T09:04:51.204Z,1.87
2019-04-03T09:07:24.636Z,2.40
2019-04-03T09:09:54.455Z,1.80
2019-04-03T09:12:25.384Z,1.70
2019-04-03T09:14:57.034Z,1.90
2019-04-03T09:17:28.514Z,1.77
2019-04-03T09:19:58.905Z,2.10
2019-04-03T09:22:30.491Z,1.70
2019-04-03T09:25:01.033Z,1.80
2019-04-03T09:27:31.209Z,1.80
2019-04-03T09:30:01.463Z,2.07
2019-04-03T09:32:33.349Z,2.00
2019-04-03T09:35:11.526Z,1.80
2019-04-03T09:37:41.732Z,2.27
2019-04-03T09:40:12.193Z,5.37
2019-04-03T09:42:42.894Z,2.03
2019-04-03T09:45:13.460Z,1.60
2019-04-03T09:47:44.594Z,1.77
2019-04-03T09:50:15.427Z,1.80
2019-04-03T09:52:49.386Z,1.70
2019-04-03T09:55:18.697Z,1.80
2019-04-03T09:57:49.007Z,1.50
2019-04-03T10:00:19.870Z,1.90
2019-04-03T10:02:51.562Z,1.80
2019-04-03T10:05:22.277Z,1.83
2019-04-03T10:07:52.790Z,1.95
2019-04-03T10:10:25.659Z,1.93
2019-04-03T10:12:55.454Z,2.00
2019-04-03T10:15:25.966Z,1.43
2019-04-03T10:17:56.713Z,1.83
2019-04-03T10:20:27.548Z,1.67
2019-04-03T10:22:57.985Z,1.73
2019-04-03T10:25:28.641Z,2.10
2019-04-03T10:27:59.569Z,1.70
2019-04-03T10:30:30.178Z,1.43
2019-04-03T10:33:01.038Z,1.60
2019-04-03T10:35:32.837Z,1.60
2019-04-03T10:38:03.176Z,1.80
2019-04-03T10:40:33.399Z,1.50
2019-04-03T10:43:06.017Z,1.87
2019-04-03T10:45:35.900Z,1.57
2019-04-03T10:48:07.879Z,1.57
2019-04-03T10:50:38.960Z,1.60
2019-04-03T10:53:09.198Z,1.80
2019-04-03T10:55:39.503Z,1.57
2019-04-03T10:58:09.907Z,1.10
2019-04-03T11:00:40.791Z,1.03
2019-04-03T11:03:12.128Z,1.40
2019-04-03T11:05:42.656Z,1.33
2019-04-03T11:08:14.088Z,1.20
2019-04-03T11:10:44.490Z,1.10
2019-04-03T11:13:14.751Z,1.03
2019-04-03T11:15:45.152Z,1.20
2019-04-03T11:18:15.972Z,1.07
2019-04-03T11:20:46.150Z,1.27
2019-04-03T11:23:16.374Z,1.27
2019-04-03T11:25:47.615Z,1.60
2019-04-03T11:28:18.445Z,1.20
2019-04-03T11:30:51.125Z,0.95
2019-04-03T11:33:20.871Z,1.60
2019-04-03T11:35:53.676Z,0.85
2019-04-03T11:38:27.963Z,0.70
2019-04-03T11:40:55.280Z,1.07
2019-04-03T11:43:25.674Z,0.93
2019-04-03T11:45:57.193Z,1.05
2019-04-03T11:48:27.755Z,0.70
2019-04-03T11:50:58.289Z,1.05
2019-04-03T11:53:28.454Z,0.70
2019-04-03T11:55:58.905Z,0.80
2019-04-03T11:58:29.352Z,1.07
2019-04-03T12:00:59.994Z,1.67
2019-04-03T12:03:30.420Z,1.00
2019-04-03T12:06:00.948Z,1.07
2019-04-03T12:08:31.615Z,0.88
2019-04-03T12:11:01.948Z,0.90
2019-04-03T12:13:32.306Z,0.80
2019-04-03T12:16:02.879Z,0.90
2019-04-03T12:18:34.234Z,1.07
2019-04-03T12:21:05.694Z,0.70
2019-04-03T12:23:38.772Z,1.00
2019-04-03T12:26:10.511Z,0.80
2019-04-03T12:28:40.104Z,0.85
2019-04-03T12:31:10.540Z,0.88
2019-04-03T12:33:51.978Z,0.70
2019-04-03T12:36:14.443Z,0.60
2019-04-03T12:38:44.988Z,0.80
2019-04-03T12:41:15.592Z,1.10
2019-04-03T12:43:46.132Z,1.25
2019-04-03T12:46:21.031Z,1.30
2019-04-03T12:48:51.463Z,1.37
2019-04-03T12:51:21.954Z,1.77
2019-04-03T12:53:52.633Z,1.67
2019-04-03T12:56:25.231Z,2.10
2019-04-03T12:58:55.340Z,2.30
2019-04-03T13:01:27.640Z,3.00
2019-04-03T13:03:58.225Z,2.90
2019-04-03T13:06:28.634Z,2.60
2019-04-03T13:08:58.903Z,2.80
2019-04-03T13:11:29.761Z,2.93
2019-04-03T13:14:02.020Z,3.20
2019-04-03T13:16:32.355Z,3.67
2019-04-03T13:19:03.110Z,3.20
2019-04-03T13:21:33.861Z,8.47
2019-04-03T13:24:04.334Z,4.70
2019-04-03T13:26:34.916Z,4.23
2019-04-03T13:29:08.619Z,3.30
2019-04-03T13:31:38.007Z,4.70
2019-04-03T13:34:11.212Z,4.80
2019-04-03T13:36:41.043Z,7.03
2019-04-03T13:39:11.987Z,5.67
2019-04-03T13:41:43.334Z,5.00
2019-04-03T13:44:14.504Z,5.80
2019-04-03T13:46:45.366Z,4.60
2019-04-03T13:49:18.087Z,4.67
2019-04-03T13:51:47.939Z,4.13
2019-04-03T13:54:18.479Z,3.50
2019-04-03T13:56:49.004Z,3.60
2019-04-03T13:59:19.339Z,3.63
2019-04-03T14:01:50.861Z,2.87
2019-04-03T14:04:22.931Z,3.27
2019-04-03T14:06:53.920Z,3.77
2019-04-03T14:09:24.303Z,2.87
2019-04-03T14:11:54.760Z,3.00
2019-04-03T14:14:25.771Z,3.50
2019-04-03T14:16:56.410Z,3.13
2019-04-03T14:19:26.784Z,2.87
2019-04-03T14:21:59.986Z,3.10
2019-04-03T14:24:39.611Z,3.20
2019-04-03T14:27:01.649Z,3.50
2019-04-03T14:29:32.594Z,2.80
2019-04-03T14:32:03.201Z,3.60
2019-04-03T14:34:33.745Z,2.70
2019-04-03T14:37:04.168Z,3.50
2019-04-03T14:39:34.394Z,3.33
2019-04-03T14:42:07.166Z,3.62
2019-04-03T14:44:38.150Z,3.20
2019-04-03T14:47:09.998Z,3.10
2019-04-03T14:49:40.674Z,2.33
2019-04-03T14:52:10.984Z,2.43
2019-04-03T14:54:41.472Z,2.60
2019-04-03T14:57:19.254Z,3.50
2019-04-03T14:59:44.390Z,2.80
2019-04-03T15:02:14.780Z,3.17
2019-04-03T15:04:45.324Z,3.17
2019-04-03T15:07:17.788Z,3.87
2019-04-03T15:09:48.133Z,2.80
2019-04-03T15:12:21.522Z,3.10
2019-04-03T15:14:52.235Z,3.10
2019-04-03T15:17:23.999Z,2.60
2019-04-03T15:19:56.630Z,2.60
2019-04-03T15:22:27.957Z,2.80
2019-04-03T15:24:58.441Z,2.50
2019-04-03T15:27:29.684Z,2.60
2019-04-03T15:30:00.314Z,2.30
2019-04-03T15:32:33.473Z,1.82
2019-04-03T15:35:04.183Z,2.15
2019-04-03T15:37:35.060Z,1.70
2019-04-03T15:40:06.305Z,1.77
2019-04-03T15:42:39.837Z,1.67
2019-04-03T15:45:09.533Z,1.50
2019-04-03T15:47:44.955Z,1.75
2019-04-03T15:50:13.079Z,1.30
2019-04-03T15:52:47.874Z,1.00
2019-04-03T15:55:16.426Z,1.20
2019-04-03T15:57:48.283Z,1.20
2019-04-03T16:00:19.435Z,1.10
2019-04-03T16:02:50.766Z,1.00
2019-04-03T16:05:21.067Z,2.07
2019-04-03T16:07:51.826Z,1.00
2019-04-03T16:10:24.227Z,1.40
2019-04-03T16:12:57.150Z,1.50
2019-04-03T16:15:27.766Z,1.10
2019-04-03T16:17:58.998Z,1.10
2019-04-03T16:20:29.926Z,1.20
2019-04-03T16:23:01.343Z,0.60
2019-04-03T16:25:32.590Z,0.80
2019-04-03T16:28:03.234Z,0.77
2019-04-03T16:30:34.145Z,0.77
2019-04-03T16:33:05.090Z,0.90
2019-04-03T16:35:37.408Z,0.70
2019-04-03T16:38:08.370Z,0.93
2019-04-03T16:40:39.484Z,1.23
2019-04-03T16:43:11.649Z,0.50
2019-04-03T16:45:42.328Z,0.50
2019-04-03T16:48:15.929Z,0.40
2019-04-03T16:50:46.309Z,0.50
2019-04-03T16:53:20.235Z,0.50
2019-04-03T16:55:50.667Z,0.60
2019-04-03T16:58:21.767Z,0.80
2019-04-03T17:00:52.584Z,0.63
2019-04-03T17:03:23.434Z,1.30
2019-04-03T17:05:54.224Z,3.37
2019-04-03T17:08:27.551Z,1.32
2019-04-03T17:10:58.013Z,0.70
2019-04-03T17:13:31.734Z,0.90
2019-04-03T17:16:02.505Z,0.87
2019-04-03T17:18:33.558Z,0.70
2019-04-03T17:21:04.014Z,0.83
2019-04-03T17:23:38.157Z,0.60
2019-04-03T17:26:09.743Z,0.87
2019-04-03T17:28:41.730Z,1.00
2019-04-03T17:31:12.820Z,1.10
2019-04-03T17:33:43.740Z,0.60
2019-04-03T17:36:14.155Z,0.67
2019-04-03T17:38:47.202Z,0.53
2019-04-03T17:41:18.192Z,1.63
2019-04-03T17:43:49.297Z,0.62
2019-04-03T17:46:20.020Z,0.80
2019-04-03T17:48:50.565Z,0.73
2019-04-03T17:51:21.084Z,0.60
2019-04-03T17:53:51.695Z,0.87
2019-04-03T17:56:22.760Z,0.60
2019-04-03T17:58:53.408Z,1.10
2019-04-03T18:01:23.916Z,0.70
2019-04-03T18:03:54.724Z,0.97
2019-04-03T18:06:27.129Z,0.93
2019-04-03T18:08:57.782Z,0.73
2019-04-03T18:11:28.456Z,0.87
2019-04-03T18:13:59.336Z,0.60
2019-04-03T18:16:30.273Z,0.70
2019-04-03T18:19:04.564Z,0.87
2019-04-03T18:21:34.226Z,0.77
2019-04-03T18:24:05.092Z,0.93
2019-04-03T18:26:35.477Z,0.80
2019-04-03T18:29:06.634Z,0.77
2019-04-03T18:31:37.851Z,0.60
2019-04-03T18:34:08.418Z,0.67
2019-04-03T18:36:38.990Z,0.63
2019-04-03T18:39:11.021Z,0.70
2019-04-03T18:41:41.758Z,1.00
2019-04-03T18:44:22.018Z,0.60
2019-04-03T18:46:44.867Z,0.60
2019-04-03T18:49:15.569Z,0.83
2019-04-03T18:51:45.984Z,0.70
2019-04-03T18:54:16.411Z,0.90
2019-04-03T18:56:46.742Z,0.80
2019-04-03T18:59:17.279Z,1.00
2019-04-03T19:01:47.905Z,0.87
2019-04-03T19:04:23.612Z,0.90
2019-04-03T19:06:55.004Z,0.90
2019-04-03T19:09:26.008Z,1.20
2019-04-03T19:12:08.016Z,0.83
2019-04-03T19:14:32.114Z,1.10
2019-04-03T19:17:02.928Z,1.23
2019-04-03T19:19:33.685Z,0.90
2019-04-03T19:22:04.666Z,1.10
2019-04-03T19:24:35.165Z,1.30
2019-04-03T19:27:05.915Z,1.20
2019-04-03T19:29:36.426Z,1.20
2019-04-03T19:32:07.005Z,0.80
2019-04-03T19:34:37.301Z,1.30
2019-04-03T19:37:07.884Z,1.37
2019-04-03T19:39:38.866Z,1.60
2019-04-03T19:42:09.695Z,1.50
2019-04-03T19:44:41.743Z,1.00
2019-04-03T19:47:12.770Z,1.50
2019-04-03T19:49:43.387Z,1.50
2019-04-03T19:52:14.248Z,5.17
2019-04-03T19:54:44.657Z,1.73
2019-04-03T19:57:15.307Z,1.77
2019-04-03T19:59:45.885Z,1.63
2019-04-03T20:02:16.106Z,1.53
2019-04-03T20:04:50.899Z,2.00
2019-04-03T20:07:21.377Z,1.60
2019-04-03T20:09:51.819Z,1.30
2019-04-03T20:12:23.495Z,1.47
2019-04-03T20:14:58.461Z,1.55
2019-04-03T20:17:26.126Z,1.33
2019-04-03T20:19:57.878Z,1.60
2019-04-03T20:22:29.162Z,1.20
2019-04-03T20:25:00.594Z,1.10
2019-04-03T20:27:31.513Z,1.47
2019-04-03T20:30:01.972Z,1.80
2019-04-03T20:32:32.264Z,1.20
2019-04-03T20:35:02.559Z,1.50
2019-04-03T20:37:33.225Z,1.35
2019-04-03T20:40:04.186Z,1.30
2019-04-03T20:42:35.007Z,1.10
2019-04-03T20:45:06.114Z,1.45
2019-04-03T20:47:36.347Z,1.07
2019-04-03T20:50:07.720Z,0.90
2019-04-03T20:52:38.340Z,0.70
2019-04-03T20:55:08.988Z,1.13
2019-04-03T20:57:39.574Z,0.80
2019-04-03T21:00:12.991Z,0.60
2019-04-03T21:02:43.296Z,0.83
2019-04-03T21:05:13.574Z,0.70
2019-04-03T21:07:43.796Z,0.80
2019-04-03T21:10:14.095Z,0.70
2019-04-03T21:12:44.763Z,0.60
2019-04-03T21:15:15.485Z,0.63
2019-04-03T21:17:45.778Z,0.80
2019-04-03T21:20:17.332Z,0.60
2019-04-03T21:22:47.670Z,0.77
2019-04-03T21:25:18.079Z,1.13
2019-04-03T21:27:48.289Z,0.87
2019-04-03T21:30:19.230Z,0.80
2019-04-03T21:32:49.336Z,0.80
2019-04-03T21:35:19.681Z,0.50
2019-04-03T21:37:49.964Z,0.60
2019-04-03T21:40:20.152Z,1.10
2019-04-03T21:42:59.588Z,0.70
2019-04-03T21:45:30.258Z,0.63
2019-04-03T21:48:00.524Z,0.83
2019-04-03T21:50:30.770Z,1.20
2019-04-03T21:53:01.036Z,0.73
2019-04-03T21:55:34.616Z,1.30
2019-04-03T21:58:04.111Z,1.17
2019-04-03T22:01:11.225Z,1.17
2019-04-03T22:03:41.560Z,1.00
2019-04-03T22:06:11.800Z,1.00
2019-04-03T22:08:42.010Z,0.90
2019-04-03T22:11:12.391Z,0.67
2019-04-03T22:13:42.633Z,1.47
2019-04-03T22:16:13.279Z,1.10
2019-04-03T22:18:43.718Z,0.80
2019-04-03T22:21:14.014Z,0.83
2019-04-03T22:23:44.158Z,1.20
2019-04-03T22:26:14.430Z,0.77
2019-04-03T22:28:46.504Z,1.30
2019-04-03T22:31:16.875Z,1.27
2019-04-03T22:33:47.153Z,0.80
2019-04-03T22:36:17.446Z,1.30
2019-04-03T22:38:47.667Z,1.10
2019-04-03T22:41:18.365Z,0.70
2019-04-03T22:43:48.662Z,1.20
2019-04-03T22:46:21.633Z,0.87
2019-04-03T22:48:50.900Z,0.77
2019-04-03T22:51:21.191Z,1.07
2019-04-03T22:53:51.558Z,0.70
2019-04-03T22:56:21.740Z,0.70
2019-04-03T22:58:52.934Z,0.77
2019-04-03T23:01:23.805Z,0.53
2019-04-03T23:03:54.170Z,0.90
2019-04-03T23:06:24.481Z,0.80
2019-04-03T23:08:54.708Z,0.67
2019-04-03T23:11:24.864Z,0.70
2019-04-03T23:13:55.123Z,0.70
2019-04-03T23:16:25.351Z,0.60
2019-04-03T23:18:56.095Z,0.70
2019-04-03T23:21:26.484Z,0.70
2019-04-03T23:23:57.913Z,0.70
2019-04-03T23:26:31.791Z,0.80
2019-04-03T23:29:00.879Z,0.90
2019-04-03T23:31:31.049Z,0.60
2019-04-03T23:34:03.223Z,1.03
2019-04-03T23:36:33.640Z,0.67
2019-04-03T23:39:05.996Z,0.70
2019-04-03T23:41:37.016Z,0.70
2019-04-03T23:44:07.150Z,0.73
2019-04-03T23:46:37.471Z,1.00
2019-04-03T23:49:07.613Z,0.90
2019-04-03T23:51:37.799Z,1.00
2019-04-03T23:54:07.959Z,1.10
2019-04-03T23:56:38.886Z,0.70
2019-04-03T23:59:12.799Z,0.87
